createdAt,value
2019-03-18T00:00:29.929Z,78.21
2019-03-18T00:03:03.736Z,78.41
2019-03-18T00:05:38.484Z,78.19
2019-03-18T00:08:12.298Z,77.91
2019-03-18T00:10:45.897Z,77.76
2019-03-18T00:13:20.281Z,77.59
2019-03-18T00:15:53.890Z,77.57
2019-03-18T00:18:29.002Z,77.44
2019-03-18T00:21:02.649Z,77.60
2019-03-18T00:23:37.272Z,77.65
2019-03-18T00:26:10.993Z,77.67
2019-03-18T00:28:44.979Z,77.54
2019-03-18T00:31:18.613Z,77.71
2019-03-18T00:33:52.499Z,77.58
2019-03-18T00:36:27.417Z,77.42
2019-03-18T00:39:01.053Z,77.44
2019-03-18T00:41:36.754Z,77.36
2019-03-18T00:44:11.546Z,77.79
2019-03-18T00:46:45.186Z,78.16
2019-03-18T00:49:18.936Z,78.04
2019-03-18T00:51:52.755Z,77.94
2019-03-18T00:54:26.502Z,77.96
2019-03-18T00:57:00.335Z,78.34
2019-03-18T00:59:35.279Z,78.46
2019-03-18T01:02:11.449Z,78.67
2019-03-18T01:04:46.370Z,78.40
2019-03-18T01:07:22.400Z,78.54
2019-03-18T01:09:57.063Z,78.64
2019-03-18T01:12:30.839Z,78.53
2019-03-18T01:15:04.667Z,78.82
2019-03-18T01:17:40.829Z,79.02
2019-03-18T01:20:15.658Z,78.99
2019-03-18T01:22:50.695Z,78.74
2019-03-18T01:25:24.284Z,79.05
2019-03-18T01:27:58.356Z,78.85
2019-03-18T01:30:32.155Z,78.81
2019-03-18T01:33:06.915Z,79.03
2019-03-18T01:35:41.885Z,78.71
2019-03-18T01:38:17.449Z,78.89
2019-03-18T01:40:52.271Z,78.73
2019-03-18T01:43:26.024Z,78.32
2019-03-18T01:45:59.997Z,78.30
2019-03-18T01:48:34.911Z,77.76
2019-03-18T01:51:08.659Z,77.94
2019-03-18T01:53:42.489Z,77.85
2019-03-18T01:56:16.335Z,77.82
2019-03-18T01:58:50.248Z,77.87
2019-03-18T02:01:23.936Z,77.83
2019-03-18T02:03:57.827Z,78.36
2019-03-18T02:06:31.875Z,78.22
2019-03-18T02:09:07.261Z,78.37
2019-03-18T02:11:42.840Z,77.92
2019-03-18T02:14:16.711Z,77.88
2019-03-18T02:16:52.535Z,77.88
2019-03-18T02:19:26.362Z,78.00
2019-03-18T02:22:01.101Z,77.96
2019-03-18T02:24:34.886Z,78.30
2019-03-18T02:27:09.914Z,78.28
2019-03-18T02:29:45.357Z,78.64
2019-03-18T02:32:19.332Z,78.62
2019-03-18T02:34:53.173Z,78.91
2019-03-18T02:37:26.876Z,79.03
2019-03-18T02:40:00.652Z,79.51
2019-03-18T02:42:36.145Z,79.61
2019-03-18T02:45:11.997Z,79.32
2019-03-18T02:47:45.801Z,80.08
2019-03-18T02:50:19.615Z,79.99
2019-03-18T02:52:53.354Z,80.21
2019-03-18T02:55:27.222Z,80.10
2019-03-18T02:58:02.362Z,80.13
2019-03-18T03:00:36.581Z,79.33
2019-03-18T03:03:12.218Z,80.17
2019-03-18T03:05:45.871Z,80.60
2019-03-18T03:08:23.429Z,80.72
2019-03-18T03:10:57.241Z,80.36
2019-03-18T03:13:30.986Z,80.73
2019-03-18T03:16:04.675Z,81.02
2019-03-18T03:18:38.349Z,80.80
2019-03-18T03:21:12.066Z,80.44
2019-03-18T03:23:45.997Z,80.01
2019-03-18T03:26:19.696Z,80.42
2019-03-18T03:28:54.114Z,80.08
2019-03-18T03:31:27.798Z,80.22
2019-03-18T03:34:04.593Z,80.24
2019-03-18T03:36:39.471Z,79.95
2019-03-18T03:39:13.278Z,80.26
2019-03-18T03:41:47.533Z,80.05
2019-03-18T03:44:21.175Z,79.95
2019-03-18T03:46:54.825Z,79.83
2019-03-18T03:49:28.577Z,79.10
2019-03-18T03:52:04.371Z,78.63
2019-03-18T03:54:40.462Z,79.01
2019-03-18T03:57:16.113Z,78.98
2019-03-18T03:59:50.515Z,78.37
2019-03-18T04:02:24.746Z,78.07
2019-03-18T04:05:00.797Z,78.33
2019-03-18T04:07:34.619Z,78.73
2019-03-18T04:10:08.680Z,78.75
2019-03-18T04:12:42.843Z,78.75
2019-03-18T04:15:16.734Z,78.63
2019-03-18T04:17:50.693Z,79.28
2019-03-18T04:20:24.482Z,79.34
2019-03-18T04:22:58.241Z,79.49
2019-03-18T04:25:32.016Z,79.71
2019-03-18T04:28:07.004Z,79.80
2019-03-18T04:30:41.337Z,79.70
2019-03-18T04:33:15.272Z,79.56
2019-03-18T04:35:49.094Z,79.22
2019-03-18T04:38:22.828Z,79.36
2019-03-18T04:40:57.597Z,78.71
2019-03-18T04:43:31.634Z,78.90
2019-03-18T04:46:05.310Z,79.04
2019-03-18T04:48:39.112Z,79.18
2019-03-18T04:51:12.747Z,79.10
2019-03-18T04:53:48.209Z,79.16
2019-03-18T04:56:21.977Z,79.31
2019-03-18T04:58:55.619Z,79.47
2019-03-18T05:01:30.004Z,79.15
2019-03-18T05:04:04.215Z,79.24
2019-03-18T05:06:39.770Z,79.18
2019-03-18T05:09:15.599Z,79.47
2019-03-18T05:11:49.440Z,79.08
2019-03-18T05:14:27.343Z,79.68
2019-03-18T05:17:02.518Z,79.45
2019-03-18T05:19:39.566Z,79.67
2019-03-18T05:22:13.648Z,79.33
2019-03-18T05:24:49.179Z,79.66
2019-03-18T05:27:23.226Z,79.22
2019-03-18T05:29:56.864Z,79.40
2019-03-18T05:32:30.541Z,78.88
2019-03-18T05:35:04.447Z,79.48
2019-03-18T05:37:38.511Z,79.66
2019-03-18T05:40:13.793Z,79.33
2019-03-18T05:42:49.147Z,79.31
2019-03-18T05:45:23.032Z,79.36
2019-03-18T05:47:56.762Z,79.54
2019-03-18T05:50:30.683Z,79.77
2019-03-18T05:53:04.321Z,79.41
2019-03-18T05:55:38.584Z,79.64
2019-03-18T05:58:12.146Z,79.38
2019-03-18T06:00:45.753Z,79.63
2019-03-18T06:03:20.939Z,79.60
2019-03-18T06:05:57.033Z,79.61
2019-03-18T06:08:30.716Z,79.27
2019-03-18T06:11:06.352Z,79.46
2019-03-18T06:13:40.796Z,79.06
2019-03-18T06:16:14.686Z,79.15
2019-03-18T06:18:48.604Z,78.78
2019-03-18T06:21:22.422Z,78.72
2019-03-18T06:23:57.849Z,78.46
2019-03-18T06:26:31.613Z,78.15
2019-03-18T06:29:05.250Z,75.94
2019-03-18T06:31:39.480Z,74.55
2019-03-18T06:34:13.935Z,74.89
2019-03-18T06:36:47.823Z,75.70
2019-03-18T06:39:21.757Z,75.78
2019-03-18T06:41:56.114Z,75.78
2019-03-18T06:44:33.432Z,73.16
2019-03-18T06:47:07.194Z,73.48
2019-03-18T06:49:42.189Z,74.12
2019-03-18T06:52:19.661Z,74.78
2019-03-18T06:54:54.422Z,75.53
2019-03-18T06:57:28.184Z,76.05
2019-03-18T07:00:03.377Z,77.11
2019-03-18T07:02:37.144Z,77.80
2019-03-18T07:05:11.118Z,77.62
2019-03-18T07:07:46.094Z,77.49
2019-03-18T07:10:19.847Z,77.35
2019-03-18T07:12:54.735Z,77.14
2019-03-18T07:15:28.341Z,77.11
2019-03-18T07:18:02.497Z,76.51
2019-03-18T07:20:36.257Z,75.98
2019-03-18T07:23:10.340Z,76.11
2019-03-18T07:25:47.037Z,75.93
2019-03-18T07:28:20.708Z,75.27
2019-03-18T07:30:56.605Z,75.82
2019-03-18T07:33:32.174Z,75.70
2019-03-18T07:36:05.860Z,75.50
2019-03-18T07:38:40.586Z,75.02
2019-03-18T07:41:14.423Z,74.30
2019-03-18T07:43:49.263Z,73.79
2019-03-18T07:46:23.161Z,72.86
2019-03-18T07:48:57.023Z,73.25
2019-03-18T07:51:30.748Z,72.49
2019-03-18T07:54:04.574Z,71.31
2019-03-18T07:56:39.425Z,70.11
2019-03-18T07:59:13.174Z,70.51
2019-03-18T08:01:46.844Z,69.63
2019-03-18T08:04:20.509Z,69.67
2019-03-18T08:06:55.578Z,70.03
2019-03-18T08:09:30.991Z,69.97
2019-03-18T08:12:23.403Z,70.14
2019-03-18T08:14:58.973Z,69.63
2019-03-18T08:17:34.517Z,66.30
2019-03-18T08:20:09.857Z,64.41
2019-03-18T08:22:43.503Z,60.90
2019-03-18T08:25:17.373Z,64.11
2019-03-18T08:27:51.124Z,65.97
2019-03-18T08:30:24.889Z,63.74
2019-03-18T08:32:59.930Z,65.74
2019-03-18T08:35:33.878Z,65.48
2019-03-18T08:38:07.802Z,66.56
2019-03-18T08:40:43.393Z,65.36
2019-03-18T08:43:17.440Z,65.40
2019-03-18T08:45:51.361Z,66.16
2019-03-18T08:48:25.359Z,66.39
2019-03-18T08:51:00.123Z,65.45
2019-03-18T08:53:33.929Z,65.03
2019-03-18T08:56:08.799Z,66.92
2019-03-18T08:58:44.140Z,70.30
2019-03-18T09:01:17.948Z,72.28
2019-03-18T09:03:54.618Z,72.17
2019-03-18T09:06:30.424Z,72.84
2019-03-18T09:09:05.202Z,75.09
2019-03-18T09:11:39.118Z,75.85
2019-03-18T09:14:12.712Z,77.14
2019-03-18T09:16:47.710Z,78.54
2019-03-18T09:19:22.584Z,80.66
2019-03-18T09:21:56.386Z,81.64
2019-03-18T09:24:30.243Z,81.66
2019-03-18T09:27:05.803Z,81.42
2019-03-18T09:29:39.862Z,80.29
2019-03-18T09:32:13.515Z,78.26
2019-03-18T09:34:47.172Z,76.55
2019-03-18T09:37:22.858Z,75.10
2019-03-18T09:39:56.564Z,71.19
2019-03-18T09:42:30.386Z,71.20
2019-03-18T09:45:06.505Z,70.54
2019-03-18T09:47:40.590Z,68.09
2019-03-18T09:50:15.430Z,69.23
2019-03-18T09:52:49.223Z,69.34
2019-03-18T09:55:22.999Z,69.77
2019-03-18T09:57:57.180Z,69.96
2019-03-18T10:00:32.203Z,69.86
2019-03-18T10:03:05.928Z,69.48
2019-03-18T10:05:43.956Z,70.34
2019-03-18T10:08:18.996Z,67.54
2019-03-18T10:10:53.008Z,65.85
2019-03-18T10:13:28.215Z,65.63
2019-03-18T10:16:03.148Z,65.14
2019-03-18T10:18:37.248Z,66.01
2019-03-18T10:21:13.214Z,65.74
2019-03-18T10:23:48.351Z,64.57
2019-03-18T10:26:23.381Z,64.83
2019-03-18T10:28:58.932Z,63.31
2019-03-18T10:31:33.595Z,61.32
2019-03-18T10:34:09.415Z,61.98
2019-03-18T10:36:45.148Z,61.50
2019-03-18T10:39:18.956Z,62.04
2019-03-18T10:41:53.994Z,61.91
2019-03-18T10:44:29.251Z,62.43
2019-03-18T10:47:03.175Z,62.46
2019-03-18T10:49:46.100Z,62.75
2019-03-18T10:52:14.390Z,61.89
2019-03-18T10:54:49.703Z,59.96
2019-03-18T10:57:23.511Z,61.07
2019-03-18T11:00:01.112Z,61.26
2019-03-18T11:02:34.927Z,68.62
2019-03-18T11:05:09.983Z,74.75
2019-03-18T11:07:46.418Z,76.60
2019-03-18T11:10:20.254Z,77.88
2019-03-18T11:12:55.804Z,78.47
2019-03-18T11:15:29.619Z,78.85
2019-03-18T11:18:03.388Z,78.63
2019-03-18T11:20:37.054Z,78.63
2019-03-18T11:23:10.688Z,77.81
2019-03-18T11:25:45.425Z,76.71
2019-03-18T11:28:19.646Z,75.83
2019-03-18T11:30:53.386Z,76.26
2019-03-18T11:33:28.565Z,74.52
2019-03-18T11:36:03.511Z,73.89
2019-03-18T11:38:39.158Z,72.99
2019-03-18T11:41:13.417Z,72.28
2019-03-18T11:43:47.088Z,72.35
2019-03-18T11:46:22.966Z,72.02
2019-03-18T11:48:56.961Z,72.75
2019-03-18T11:51:31.216Z,73.07
2019-03-18T11:54:08.795Z,70.04
2019-03-18T11:56:42.663Z,69.29
2019-03-18T11:59:16.295Z,68.13
2019-03-18T12:01:50.161Z,67.64
2019-03-18T12:04:23.934Z,66.77
2019-03-18T12:06:57.865Z,65.85
2019-03-18T12:09:31.515Z,65.61
2019-03-18T12:12:05.456Z,64.03
2019-03-18T12:14:39.151Z,65.00
2019-03-18T12:17:14.569Z,64.44
2019-03-18T12:19:49.724Z,64.57
2019-03-18T12:22:23.938Z,64.28
2019-03-18T12:24:57.663Z,62.40
2019-03-18T12:27:31.327Z,62.41
2019-03-18T12:30:06.061Z,61.64
2019-03-18T12:32:41.755Z,62.21
2019-03-18T12:35:15.844Z,63.26
2019-03-18T12:37:51.666Z,61.36
2019-03-18T12:40:27.163Z,60.88
2019-03-18T12:43:03.129Z,61.92
2019-03-18T12:45:36.930Z,60.89
2019-03-18T12:48:11.891Z,61.08
2019-03-18T12:50:55.791Z,61.65
2019-03-18T12:53:21.256Z,59.83
2019-03-18T12:55:54.978Z,58.58
2019-03-18T12:58:30.729Z,58.30
2019-03-18T13:01:12.501Z,58.24
2019-03-18T13:03:40.983Z,58.75
2019-03-18T13:06:18.523Z,59.22
2019-03-18T13:08:52.621Z,57.88
2019-03-18T13:11:27.736Z,58.43
2019-03-18T13:14:02.601Z,57.73
2019-03-18T13:16:36.578Z,59.10
2019-03-18T13:19:11.600Z,60.46
2019-03-18T13:21:45.362Z,61.25
2019-03-18T13:24:19.276Z,65.20
2019-03-18T13:26:52.964Z,67.79
2019-03-18T13:29:28.628Z,73.84
2019-03-18T13:32:04.378Z,75.90
2019-03-18T13:34:40.212Z,75.86
2019-03-18T13:37:15.064Z,75.17
2019-03-18T13:39:49.996Z,74.66
2019-03-18T13:42:25.139Z,75.26
2019-03-18T13:44:59.027Z,74.21
2019-03-18T13:47:33.319Z,74.26
2019-03-18T13:50:09.427Z,73.98
2019-03-18T13:52:43.334Z,75.19
2019-03-18T13:55:19.105Z,74.89
2019-03-18T13:57:52.793Z,73.72
2019-03-18T14:00:26.498Z,72.83
2019-03-18T14:03:00.548Z,71.31
2019-03-18T14:05:34.261Z,72.14
2019-03-18T14:08:07.922Z,71.15
2019-03-18T14:10:41.982Z,69.94
2019-03-18T14:13:16.159Z,70.23
2019-03-18T14:15:51.172Z,68.82
2019-03-18T14:18:26.652Z,68.12
2019-03-18T14:21:02.189Z,67.62
2019-03-18T14:23:37.767Z,67.75
2019-03-18T14:26:11.488Z,67.98
2019-03-18T14:28:45.445Z,66.79
2019-03-18T14:31:19.452Z,65.81
2019-03-18T14:33:53.135Z,65.54
2019-03-18T14:36:27.385Z,65.40
2019-03-18T14:39:04.638Z,65.67
2019-03-18T14:41:38.372Z,64.74
2019-03-18T14:44:12.383Z,63.87
2019-03-18T14:46:46.471Z,64.99
2019-03-18T14:49:20.171Z,65.63
2019-03-18T14:51:55.449Z,65.67
2019-03-18T14:54:29.150Z,65.78
2019-03-18T14:57:02.819Z,65.58
2019-03-18T14:59:37.274Z,64.88
2019-03-18T15:02:12.312Z,63.68
2019-03-18T15:04:45.946Z,62.27
2019-03-18T15:07:22.184Z,64.47
2019-03-18T15:09:56.270Z,70.09
2019-03-18T15:12:30.175Z,73.98
2019-03-18T15:15:07.553Z,75.18
2019-03-18T15:17:41.382Z,75.48
2019-03-18T15:20:15.489Z,75.18
2019-03-18T15:22:50.185Z,75.72
2019-03-18T15:25:24.300Z,75.27
2019-03-18T15:27:59.359Z,75.24
2019-03-18T15:30:35.284Z,74.48
2019-03-18T15:33:09.055Z,74.95
2019-03-18T15:35:42.820Z,74.95
2019-03-18T15:38:19.993Z,76.03
2019-03-18T15:40:54.690Z,76.40
2019-03-18T15:43:28.379Z,76.46
2019-03-18T15:46:02.296Z,75.62
2019-03-18T15:48:36.234Z,75.13
2019-03-18T15:51:13.595Z,74.19
2019-03-18T15:53:47.309Z,73.80
2019-03-18T15:56:22.137Z,72.62
2019-03-18T15:58:55.748Z,72.14
2019-03-18T16:01:31.794Z,71.79
2019-03-18T16:04:08.984Z,70.90
2019-03-18T16:06:43.806Z,70.98
2019-03-18T16:09:17.704Z,70.86
2019-03-18T16:11:51.549Z,70.43
2019-03-18T16:14:25.830Z,69.85
2019-03-18T16:17:02.388Z,69.90
2019-03-18T16:19:36.421Z,69.69
2019-03-18T16:22:22.708Z,70.18
2019-03-18T16:24:45.919Z,70.47
2019-03-18T16:27:21.046Z,70.46
2019-03-18T16:29:54.738Z,69.54
2019-03-18T16:32:28.440Z,69.23
2019-03-18T16:35:03.537Z,69.72
2019-03-18T16:37:39.861Z,69.94
2019-03-18T16:40:14.128Z,69.95
2019-03-18T16:42:48.082Z,68.77
2019-03-18T16:45:21.832Z,68.61
2019-03-18T16:47:57.550Z,69.31
2019-03-18T16:50:32.772Z,68.75
2019-03-18T16:53:11.306Z,67.83
2019-03-18T16:55:45.504Z,68.50
2019-03-18T16:58:20.572Z,69.76
2019-03-18T17:00:54.836Z,70.50
2019-03-18T17:03:30.611Z,70.75
2019-03-18T17:06:04.370Z,70.26
2019-03-18T17:08:38.176Z,70.42
2019-03-18T17:11:13.821Z,70.24
2019-03-18T17:13:47.975Z,71.06
2019-03-18T17:16:21.564Z,71.56
2019-03-18T17:18:56.427Z,71.50
2019-03-18T17:21:31.988Z,71.75
2019-03-18T17:24:07.543Z,71.68
2019-03-18T17:26:42.676Z,72.47
2019-03-18T17:29:16.470Z,73.56
2019-03-18T17:31:50.276Z,73.41
2019-03-18T17:34:24.304Z,73.58
2019-03-18T17:36:57.907Z,74.21
2019-03-18T17:39:32.725Z,74.58
2019-03-18T17:42:07.560Z,74.36
2019-03-18T17:44:41.674Z,74.42
2019-03-18T17:47:16.421Z,74.80
2019-03-18T17:49:50.272Z,75.17
2019-03-18T17:52:23.957Z,75.41
2019-03-18T17:54:57.746Z,75.97
2019-03-18T17:57:31.451Z,76.12
2019-03-18T18:00:05.797Z,76.36
2019-03-18T18:02:39.654Z,76.56
2019-03-18T18:05:13.986Z,76.69
2019-03-18T18:07:48.282Z,76.95
2019-03-18T18:10:22.878Z,77.10
2019-03-18T18:12:56.525Z,77.39
2019-03-18T18:15:31.389Z,77.19
2019-03-18T18:18:07.142Z,77.08
2019-03-18T18:20:41.061Z,77.45
2019-03-18T18:23:15.264Z,77.44
2019-03-18T18:25:51.499Z,77.58
2019-03-18T18:28:28.339Z,77.50
2019-03-18T18:31:01.566Z,77.69
2019-03-18T18:33:36.106Z,78.00
2019-03-18T18:36:10.007Z,77.62
2019-03-18T18:38:45.503Z,77.79
2019-03-18T18:41:19.372Z,77.54
2019-03-18T18:43:53.142Z,77.54
2019-03-18T18:46:26.834Z,77.71
2019-03-18T18:49:00.962Z,78.39
2019-03-18T18:51:34.973Z,78.02
2019-03-18T18:54:10.728Z,78.41
2019-03-18T18:56:45.039Z,77.89
2019-03-18T18:59:18.998Z,78.19
2019-03-18T19:01:54.121Z,78.29
2019-03-18T19:04:27.790Z,78.15
2019-03-18T19:07:03.485Z,78.23
2019-03-18T19:09:37.708Z,78.47
2019-03-18T19:12:12.126Z,78.29
2019-03-18T19:14:46.689Z,78.67
2019-03-18T19:17:20.691Z,78.76
2019-03-18T19:19:54.280Z,78.11
2019-03-18T19:22:28.535Z,77.32
2019-03-18T19:25:02.170Z,77.14
2019-03-18T19:27:36.535Z,77.19
2019-03-18T19:30:15.039Z,77.05
2019-03-18T19:32:49.396Z,76.94
2019-03-18T19:35:24.981Z,76.47
2019-03-18T19:38:02.302Z,76.40
2019-03-18T19:40:37.519Z,76.06
2019-03-18T19:43:11.461Z,75.76
2019-03-18T19:45:46.177Z,75.68
2019-03-18T19:48:20.477Z,75.19
2019-03-18T19:50:54.241Z,75.07
2019-03-18T19:53:29.221Z,74.81
2019-03-18T19:56:02.980Z,74.58
2019-03-18T19:58:37.192Z,74.73
2019-03-18T20:01:11.151Z,75.08
2019-03-18T20:03:46.180Z,74.96
2019-03-18T20:06:19.797Z,75.03
2019-03-18T20:08:55.863Z,75.13
2019-03-18T20:11:30.396Z,74.92
2019-03-18T20:14:05.509Z,75.76
2019-03-18T20:16:39.560Z,75.81
2019-03-18T20:19:13.603Z,76.15
2019-03-18T20:21:47.584Z,76.01
2019-03-18T20:24:22.320Z,76.28
2019-03-18T20:26:58.654Z,75.52
2019-03-18T20:29:32.693Z,75.80
2019-03-18T20:32:06.537Z,75.66
2019-03-18T20:34:42.169Z,75.49
2019-03-18T20:37:16.568Z,75.68
2019-03-18T20:39:50.947Z,75.58
2019-03-18T20:42:25.116Z,76.02
2019-03-18T20:44:59.517Z,75.75
2019-03-18T20:47:34.514Z,76.23
2019-03-18T20:50:10.666Z,76.38
2019-03-18T20:52:45.044Z,76.02
2019-03-18T20:55:19.217Z,76.10
2019-03-18T20:57:55.489Z,76.02
2019-03-18T21:00:30.546Z,75.95
2019-03-18T21:03:04.606Z,76.19
2019-03-18T21:05:40.533Z,75.67
2019-03-18T21:08:15.497Z,75.50
2019-03-18T21:10:50.731Z,75.27
2019-03-18T21:13:27.047Z,75.19
2019-03-18T21:16:00.755Z,75.20
2019-03-18T21:18:34.629Z,75.58
2019-03-18T21:21:08.315Z,76.03
2019-03-18T21:23:42.315Z,75.69
2019-03-18T21:26:16.529Z,76.16
2019-03-18T21:28:50.197Z,76.67
2019-03-18T21:31:24.283Z,76.69
2019-03-18T21:33:58.052Z,77.11
2019-03-18T21:36:37.755Z,77.39
2019-03-18T21:39:10.639Z,77.21
2019-03-18T21:41:44.908Z,77.50
2019-03-18T21:44:18.701Z,77.91
2019-03-18T21:46:52.865Z,78.33
2019-03-18T21:49:27.610Z,79.04
2019-03-18T21:52:01.522Z,78.68
2019-03-18T21:54:35.380Z,79.21
2019-03-18T21:57:09.082Z,79.79
2019-03-18T21:59:42.841Z,79.74
2019-03-18T22:02:16.517Z,79.48
2019-03-18T22:04:50.253Z,80.35
2019-03-18T22:07:25.111Z,80.61
2019-03-18T22:10:00.056Z,80.40
2019-03-18T22:12:35.871Z,81.09
2019-03-18T22:15:11.298Z,81.77
2019-03-18T22:17:45.970Z,81.69
2019-03-18T22:20:19.731Z,81.90
2019-03-18T22:22:55.445Z,82.25
2019-03-18T22:25:30.642Z,82.33
2019-03-18T22:28:05.627Z,82.51
2019-03-18T22:30:39.641Z,82.89
2019-03-18T22:33:13.741Z,83.54
2019-03-18T22:35:48.072Z,83.09
2019-03-18T22:38:24.722Z,83.09
2019-03-18T22:41:00.232Z,83.09
2019-03-18T22:43:34.559Z,83.56
2019-03-18T22:46:10.123Z,83.47
2019-03-18T22:48:45.014Z,83.23
2019-03-18T22:51:20.798Z,82.87
2019-03-18T22:53:54.775Z,82.39
2019-03-18T22:56:29.878Z,82.06
2019-03-18T22:59:05.191Z,82.56
2019-03-18T23:01:42.170Z,82.31
2019-03-18T23:04:16.077Z,81.73
2019-03-18T23:06:50.131Z,81.80
2019-03-18T23:09:23.904Z,81.90
2019-03-18T23:12:00.880Z,82.63
2019-03-18T23:14:34.609Z,82.79
2019-03-18T23:17:10.080Z,82.98
2019-03-18T23:19:44.864Z,82.96
2019-03-18T23:22:20.409Z,82.66
2019-03-18T23:24:54.104Z,82.99
2019-03-18T23:27:27.876Z,83.00
2019-03-18T23:30:01.592Z,82.79
2019-03-18T23:32:35.539Z,82.61
2019-03-18T23:35:09.687Z,82.24
2019-03-18T23:37:45.199Z,82.46
2019-03-18T23:40:18.905Z,81.86
2019-03-18T23:42:54.457Z,82.13
2019-03-18T23:45:28.322Z,82.02
2019-03-18T23:48:03.301Z,82.25
2019-03-18T23:50:38.435Z,82.52
2019-03-18T23:53:13.409Z,82.70
2019-03-18T23:55:47.281Z,82.70
2019-03-18T23:58:21.440Z,83.22
